Time;durP1;ratioP1;P1;durP2;ratioP2;P2;SDS_P1;SDS_P2;PMS_P1;PMS_P2;Temp;Humidity;BMP_temperature;BMP_pressure;BME280_temperature;BME280_humidity;BME280_pressure;Samples;Min_cycle;Max_cycle;Signal;HPM_P1;HPM_P2
2022/03/21 00:01:34;;;;;;;;;;;7.70;99.90;;;;;;5029880;28;19921;-84
2022/03/21 00:04:00;;;;;;;;;;;7.70;99.90;;;;;;5036141;28;19936;-84
2022/03/21 00:06:27;;;;;;;;;;;7.70;99.90;;;;;;5026352;28;19929;-84
2022/03/21 00:08:55;;;;;;;;;;;7.70;99.90;;;;;;5033424;28;19993;-84
2022/03/21 00:11:22;;;;;;;;;;;7.60;99.90;;;;;;5021784;28;19929;-83
2022/03/21 00:13:53;;;;;;;;;;;7.70;99.90;;;;;;5035259;28;19925;-83
2022/03/21 00:16:20;;;;;;;;;;;7.70;99.90;;;;;;5028141;28;19979;-84
2022/03/21 00:18:48;;;;;;;;;;;7.70;99.90;;;;;;5024376;28;19932;-84
2022/03/21 00:21:15;;;;;;;;;;;7.70;99.90;;;;;;5019910;28;20000;-83
2022/03/21 00:23:42;;;;;;;;;;;7.90;99.90;;;;;;5031129;28;19925;-83
2022/03/21 00:26:09;;;;;;;;;;;7.80;99.90;;;;;;5029396;28;19924;-83
2022/03/21 00:28:36;;;;;;;;;;;7.70;99.90;;;;;;5007320;28;19921;-84
2022/03/21 00:31:04;;;;;;;;;;;7.70;99.90;;;;;;5028844;28;19974;-84
2022/03/21 00:33:31;;;;;;;;;;;7.70;99.90;;;;;;5018368;28;19929;-84
2022/03/21 00:35:59;;;;;;;;;;;7.70;99.90;;;;;;5025278;28;19920;-83
2022/03/21 00:38:27;;;;;;;;;;;7.80;99.90;;;;;;5010900;28;19930;-83
2022/03/21 00:40:54;;;;;;;;;;;7.80;99.90;;;;;;5023764;28;19953;-84
2022/03/21 00:43:22;;;;;;;;;;;7.80;99.90;;;;;;5025967;28;19926;-83
2022/03/21 00:45:49;;;;;;;;;;;7.80;99.90;;;;;;5026919;28;19925;-84
2022/03/21 00:48:16;;;;;;;;;;;7.80;99.90;;;;;;5031092;28;19944;-84
2022/03/21 00:50:43;;;;;;;;;;;7.80;99.90;;;;;;5025864;28;19957;-84
2022/03/21 00:53:11;;;;;;;;;;;7.90;99.90;;;;;;5020385;28;19921;-82
2022/03/21 00:55:38;;;;;;;;;;;7.80;99.90;;;;;;5023177;28;19988;-82
2022/03/21 00:58:04;;;;;;;;;;;7.80;99.90;;;;;;5019327;28;19921;-83
2022/03/21 01:00:32;;;;;;;;;;;7.70;99.90;;;;;;5025849;28;19925;-82
2022/03/21 01:03:00;;;;;;;;;;;7.70;99.90;;;;;;5022320;28;19932;-82
2022/03/21 01:05:27;;;;;;;;;;;7.70;99.90;;;;;;5022951;28;19932;-82
2022/03/21 01:07:54;;;;;;;;;;;7.70;99.90;;;;;;5032630;28;20001;-82
2022/03/21 01:10:23;;;;;;;;;;;7.80;99.90;;;;;;5002195;28;19929;-82
2022/03/21 01:12:50;;;;;;;;;;;7.90;99.90;;;;;;5018743;28;20032;-83
2022/03/21 01:15:18;;;;;;;;;;;7.90;99.90;;;;;;5023281;28;19928;-83
2022/03/21 01:17:46;;;;;;;;;;;7.90;99.90;;;;;;5024718;28;19940;-82
2022/03/21 01:20:14;;;;;;;;;;;7.80;99.90;;;;;;5023649;28;19929;-81
2022/03/21 01:22:40;;;;;;;;;;;7.70;99.90;;;;;;5015701;28;20024;-82
2022/03/21 01:25:08;;;;;;;;;;;7.70;99.90;;;;;;5029411;28;19988;-82
2022/03/21 01:27:36;;;;;;;;;;;7.70;99.90;;;;;;5017399;28;19925;-82
2022/03/21 01:30:03;;;;;;;;;;;7.70;99.90;;;;;;5027364;28;19937;-83
2022/03/21 01:32:30;;;;;;;;;;;7.80;99.90;;;;;;5015881;28;19932;-82
2022/03/21 01:34:56;;;;;;;;;;;7.80;99.90;;;;;;5030706;28;19989;-82
2022/03/21 01:37:23;;;;;;;;;;;7.90;99.90;;;;;;5024258;28;20489;-83
2022/03/21 01:39:50;;;;;;;;;;;7.90;99.90;;;;;;5030280;28;20011;-82
2022/03/21 01:42:17;;;;;;;;;;;7.80;99.90;;;;;;5014082;28;19995;-82
2022/03/21 01:44:45;;;;;;;;;;;7.80;99.90;;;;;;5027239;28;19994;-82
2022/03/21 01:47:11;;;;;;;;;;;7.70;99.90;;;;;;5027700;28;19921;-82
2022/03/21 01:49:38;;;;;;;;;;;7.70;99.90;;;;;;5025651;28;20000;-82
2022/03/21 01:52:05;;;;;;;;;;;7.70;99.90;;;;;;5032531;28;19920;-82
2022/03/21 01:57:16;;;;;;;;;;;7.70;99.90;;;;;;5028501;28;20405;-82
2022/03/21 01:59:44;;;;;;;;;;;7.70;99.90;;;;;;5015890;28;20342;-82
2022/03/21 02:02:12;;;;;;;;;;;7.80;99.90;;;;;;5025379;28;19925;-82
2022/03/21 02:04:38;;;;;;;;;;;7.60;99.90;;;;;;5023080;28;19984;-81
2022/03/21 02:07:05;;;;;;;;;;;7.60;99.90;;;;;;5029642;28;19933;-82
2022/03/21 02:09:32;;;;;;;;;;;6.60;99.90;;;;;;5028472;28;19921;-82
2022/03/21 02:11:59;;;;;;;;;;;7.60;99.90;;;;;;5029578;28;19969;-82
2022/03/21 02:14:25;;;;;;;;;;;7.70;99.90;;;;;;5012887;28;20085;-81
2022/03/21 02:16:52;;;;;;;;;;;7.70;99.90;;;;;;5023512;28;19921;-83
2022/03/21 02:19:25;;;;;;;;;;;7.80;99.90;;;;;;5020070;28;20062;-83
2022/03/21 02:21:59;;;;;;;;;;;7.70;99.90;;;;;;5026218;28;20346;-83
2022/03/21 02:24:30;;;;;;;;;;;7.80;99.90;;;;;;5027927;28;19932;-82
2022/03/21 02:26:59;;;;;;;;;;;7.80;99.90;;;;;;5020464;28;19932;-83
2022/03/21 02:29:26;;;;;;;;;;;7.80;99.90;;;;;;5017053;28;19948;-83
2022/03/21 02:31:54;;;;;;;;;;;7.70;99.90;;;;;;5026704;28;19925;-83
2022/03/21 02:34:23;;;;;;;;;;;7.70;99.90;;;;;;5011770;28;19929;-83
2022/03/21 02:36:53;;;;;;;;;;;7.80;99.90;;;;;;5013599;28;19925;-83
2022/03/21 02:39:20;;;;;;;;;;;7.70;99.90;;;;;;5021449;28;19936;-82
2022/03/21 02:41:48;;;;;;;;;;;7.80;99.90;;;;;;5021043;28;19925;-82
2022/03/21 02:44:16;;;;;;;;;;;7.80;99.90;;;;;;5020988;28;19959;-82
2022/03/21 02:46:43;;;;;;;;;;;7.70;99.90;;;;;;5017455;28;19944;-83
2022/03/21 02:49:09;;;;;;;;;;;7.70;99.90;;;;;;5025016;28;19967;-82
2022/03/21 02:51:39;;;;;;;;;;;7.70;99.90;;;;;;5030244;28;19920;-83
2022/03/21 02:54:06;;;;;;;;;;;7.80;99.90;;;;;;5019503;28;20044;-82
2022/03/21 02:56:32;;;;;;;;;;;7.70;99.90;;;;;;5032018;28;19956;-81
2022/03/21 02:58:59;;;;;;;;;;;7.70;99.90;;;;;;5024783;28;19926;-82
2022/03/21 03:01:27;;;;;;;;;;;7.70;99.90;;;;;;5007837;28;19929;-83
2022/03/21 03:03:54;;;;;;;;;;;7.60;99.90;;;;;;5018050;28;19948;-83
2022/03/21 03:06:21;;;;;;;;;;;7.60;99.90;;;;;;5022216;28;19935;-83
2022/03/21 03:08:47;;;;;;;;;;;7.50;99.90;;;;;;5015051;28;19988;-83
2022/03/21 03:11:14;;;;;;;;;;;7.50;99.90;;;;;;5024501;28;19948;-83
2022/03/21 03:13:41;;;;;;;;;;;7.50;99.90;;;;;;5027539;28;19925;-83
2022/03/21 03:16:08;;;;;;;;;;;7.60;99.90;;;;;;5030750;28;20848;-82
2022/03/21 03:18:36;;;;;;;;;;;7.60;99.90;;;;;;5030910;28;19936;-82
2022/03/21 03:21:02;;;;;;;;;;;7.60;99.90;;;;;;5026217;28;19925;-84
2022/03/21 03:23:31;;;;;;;;;;;7.60;99.90;;;;;;5023348;28;19932;-83
2022/03/21 03:25:58;;;;;;;;;;;7.60;99.90;;;;;;5029433;28;19931;-83
2022/03/21 03:28:25;;;;;;;;;;;7.60;99.90;;;;;;5038280;28;20024;-85
2022/03/21 03:30:52;;;;;;;;;;;7.50;99.90;;;;;;5035872;28;19921;-83
2022/03/21 03:33:20;;;;;;;;;;;7.30;99.90;;;;;;5038719;28;19909;-83
2022/03/21 03:35:48;;;;;;;;;;;7.30;99.90;;;;;;5041116;28;19997;-83
2022/03/21 03:38:15;;;;;;;;;;;7.30;99.90;;;;;;5033868;28;19922;-83
2022/03/21 03:40:43;;;;;;;;;;;7.40;99.90;;;;;;5036220;28;19925;-84
2022/03/21 03:43:10;;;;;;;;;;;7.40;99.90;;;;;;5041121;28;20001;-83
2022/03/21 03:45:36;;;;;;;;;;;7.50;99.90;;;;;;5037916;28;19929;-83
2022/03/21 03:48:03;;;;;;;;;;;7.50;99.90;;;;;;5038498;28;19908;-83
2022/03/21 03:50:30;;;;;;;;;;;7.50;99.90;;;;;;5039292;28;19921;-83
2022/03/21 03:52:58;;;;;;;;;;;9.00;99.90;;;;;;5042354;28;20012;-84
2022/03/21 03:55:26;;;;;;;;;;;7.40;99.90;;;;;;5042245;28;20116;-83
2022/03/21 03:57:53;;;;;;;;;;;7.40;99.90;;;;;;5049205;28;19921;-83
2022/03/21 04:00:20;;;;;;;;;;;7.40;99.90;;;;;;5044517;28;19925;-83
2022/03/21 04:05:31;;;;;;;;;;;7.40;99.90;;;;;;5023208;28;19980;-84
2022/03/21 04:07:59;;;;;;;;;;;7.30;99.90;;;;;;5039912;28;20021;-83
2022/03/21 04:10:26;;;;;;;;;;;7.20;99.90;;;;;;5020292;28;19921;-83
2022/03/21 04:12:53;;;;;;;;;;;7.20;99.90;;;;;;5041057;28;19928;-84
2022/03/21 04:15:21;;;;;;;;;;;7.10;99.90;;;;;;5020278;28;20492;-81
2022/03/21 04:17:48;;;;;;;;;;;7.00;99.90;;;;;;5030340;28;20008;-83
2022/03/21 04:20:15;;;;;;;;;;;6.90;99.90;;;;;;5026550;28;19948;-84
2022/03/21 04:22:42;;;;;;;;;;;6.80;99.90;;;;;;5022586;28;19945;-84
2022/03/21 04:25:11;;;;;;;;;;;6.70;99.90;;;;;;5038947;28;19952;-83
2022/03/21 04:27:38;;;;;;;;;;;6.70;99.90;;;;;;5026281;28;19929;-83
2022/03/21 04:30:05;;;;;;;;;;;6.70;99.90;;;;;;5033520;28;19994;-83
2022/03/21 04:32:33;;;;;;;;;;;6.60;99.90;;;;;;5031960;28;20421;-83
2022/03/21 04:35:00;;;;;;;;;;;6.60;99.90;;;;;;5029822;28;19945;-82
2022/03/21 04:37:27;;;;;;;;;;;6.50;99.90;;;;;;5026086;28;19952;-82
2022/03/21 04:39:54;;;;;;;;;;;6.40;99.90;;;;;;5017985;28;20083;-82
2022/03/21 04:42:22;;;;;;;;;;;6.30;99.90;;;;;;5009647;28;19929;-80
2022/03/21 04:44:50;;;;;;;;;;;6.30;99.90;;;;;;5026993;28;19922;-82
2022/03/21 04:47:17;;;;;;;;;;;6.30;99.90;;;;;;5021941;28;19921;-83
2022/03/21 04:49:44;;;;;;;;;;;6.10;99.90;;;;;;5024212;28;19926;-83
2022/03/21 04:52:12;;;;;;;;;;;6.10;99.90;;;;;;5021481;28;19929;-83
2022/03/21 04:54:39;;;;;;;;;;;6.00;99.90;;;;;;5020237;28;20016;-83
2022/03/21 04:57:08;;;;;;;;;;;5.90;99.90;;;;;;5002644;28;20303;-83
2022/03/21 04:59:36;;;;;;;;;;;5.80;99.90;;;;;;5020263;28;19925;-83
2022/03/21 05:02:03;;;;;;;;;;;5.70;99.90;;;;;;5015534;28;19921;-84
2022/03/21 05:04:31;;;;;;;;;;;5.60;99.90;;;;;;5019500;28;19925;-82
2022/03/21 05:06:58;;;;;;;;;;;5.70;99.90;;;;;;5026867;28;19921;-83
2022/03/21 05:09:24;;;;;;;;;;;5.50;99.90;;;;;;5024293;28;20354;-83
2022/03/21 05:11:52;;;;;;;;;;;5.50;99.90;;;;;;5005864;28;19921;-83
2022/03/21 05:14:19;;;;;;;;;;;5.40;99.90;;;;;;5013676;28;19922;-83
2022/03/21 05:16:49;;;;;;;;;;;5.40;99.90;;;;;;5032229;28;19972;-83
2022/03/21 05:19:16;;;;;;;;;;;5.30;99.90;;;;;;5036970;28;20690;-84
2022/03/21 05:21:42;;;;;;;;;;;5.20;99.90;;;;;;5026671;28;19925;-82
2022/03/21 05:32:24;;;;;;;;;;;5.00;99.90;;;;;;5028945;28;19969;-84
2022/03/21 05:37:35;;;;;;;;;;;5.00;99.90;;;;;;5010228;28;19928;-82
2022/03/21 05:42:46;;;;;;;;;;;4.90;99.90;;;;;;5013788;28;19925;-82
2022/03/21 05:45:19;;;;;;;;;;;4.90;99.90;;;;;;5026515;28;20332;-80
2022/03/21 05:50:34;;;;;;;;;;;4.90;99.90;;;;;;5012624;28;20289;-83
2022/03/21 05:53:01;;;;;;;;;;;4.80;99.90;;;;;;5016433;28;19929;-82
2022/03/21 05:55:29;;;;;;;;;;;4.80;99.90;;;;;;5019192;28;19921;-83
2022/03/21 05:57:56;;;;;;;;;;;4.80;99.90;;;;;;5031003;28;19945;-83
2022/03/21 06:00:22;;;;;;;;;;;4.80;99.90;;;;;;5040235;28;20305;-82
2022/03/21 06:02:51;;;;;;;;;;;4.90;99.90;;;;;;5018229;28;19944;-82
2022/03/21 06:05:18;;;;;;;;;;;5.10;99.90;;;;;;5009354;28;19940;-82
2022/03/21 06:07:45;;;;;;;;;;;5.10;99.90;;;;;;5022552;28;20003;-82
2022/03/21 06:10:12;;;;;;;;;;;5.10;99.90;;;;;;5026929;28;19956;-83
2022/03/21 06:12:39;;;;;;;;;;;5.30;99.90;;;;;;5018785;28;19932;-82
2022/03/21 06:15:06;;;;;;;;;;;5.40;99.90;;;;;;5011518;28;19925;-82
2022/03/21 06:17:36;;;;;;;;;;;5.60;99.90;;;;;;5021559;28;19981;-81
2022/03/21 06:20:06;;;;;;;;;;;5.70;99.90;;;;;;5004660;28;19974;-82
2022/03/21 06:22:33;;;;;;;;;;;5.90;99.90;;;;;;5019584;28;19929;-82
2022/03/21 06:25:00;;;;;;;;;;;6.20;99.90;;;;;;5016432;28;19977;-83
2022/03/21 06:27:27;;;;;;;;;;;6.50;99.90;;;;;;5020655;28;19933;-82
2022/03/21 06:29:53;;;;;;;;;;;7.00;99.90;;;;;;5026257;28;19932;-81
2022/03/21 06:32:20;;;;;;;;;;;7.40;99.90;;;;;;5010960;28;19976;-82
2022/03/21 06:34:48;;;;;;;;;;;7.90;99.90;;;;;;5025937;28;19944;-82
2022/03/21 06:37:16;;;;;;;;;;;8.40;99.90;;;;;;5029358;28;19964;-82
2022/03/21 06:39:42;;;;;;;;;;;8.90;99.90;;;;;;5025681;28;19921;-83
2022/03/21 06:42:11;;;;;;;;;;;9.30;99.90;;;;;;5032238;28;20222;-81
2022/03/21 06:44:38;;;;;;;;;;;9.70;99.90;;;;;;5030635;28;19925;-80
2022/03/21 06:47:05;;;;;;;;;;;10.20;99.90;;;;;;5032465;28;19932;-83
2022/03/21 06:49:32;;;;;;;;;;;10.70;99.90;;;;;;5025365;28;20487;-82
2022/03/21 06:51:58;;;;;;;;;;;11.20;99.90;;;;;;5029189;28;20008;-83
2022/03/21 06:54:26;;;;;;;;;;;11.80;99.90;;;;;;5032357;28;19925;-84
2022/03/21 06:56:53;;;;;;;;;;;12.40;99.90;;;;;;5030962;28;19921;-82
2022/03/21 06:59:20;;;;;;;;;;;13.20;99.90;;;;;;5028808;28;20000;-81
2022/03/21 07:01:47;;;;;;;;;;;13.80;99.90;;;;;;5020992;28;19925;-83
2022/03/21 07:04:13;;;;;;;;;;;14.40;99.90;;;;;;4996971;28;20325;-83
2022/03/21 07:06:40;;;;;;;;;;;14.80;99.90;;;;;;5021537;28;19925;-82
2022/03/21 07:09:07;;;;;;;;;;;15.20;99.90;;;;;;5029341;28;19925;-83
2022/03/21 07:11:37;;;;;;;;;;;15.50;99.90;;;;;;5018296;28;19925;-84
2022/03/21 07:14:04;;;;;;;;;;;16.00;99.90;;;;;;5027689;28;19928;-83
2022/03/21 07:16:30;;;;;;;;;;;16.30;99.90;;;;;;5024356;28;20285;-82
2022/03/21 07:18:57;;;;;;;;;;;16.50;99.90;;;;;;5015127;28;19925;-82
2022/03/21 07:21:24;;;;;;;15.60;9.57;;;16.70;99.90;;;;;;5020750;28;19921;-82
2022/03/21 07:23:51;;;;;;;17.20;10.47;;;17.00;99.90;;;;;;5020888;28;20319;-82
2022/03/21 07:26:18;;;;;;;14.00;9.73;;;17.20;99.90;;;;;;5024085;28;20288;-79
2022/03/21 07:28:46;;;;;;;14.70;10.27;;;17.50;99.90;;;;;;5042488;28;20190;-79
2022/03/21 07:31:13;;;;;;;16.23;10.00;;;17.70;99.90;;;;;;5044632;28;20213;-78
2022/03/21 07:33:42;;;;;;;17.73;10.77;;;17.90;99.90;;;;;;5041965;28;20252;-79
2022/03/21 07:36:09;;;;;;;13.63;10.30;;;18.10;99.90;;;;;;5035677;28;20201;-82
2022/03/21 07:38:37;;;;;;;15.07;10.70;;;18.30;99.90;;;;;;5020224;28;20213;-81
2022/03/21 07:41:05;;;;;;;13.37;10.03;;;18.80;99.90;;;;;;5015839;28;20238;-81
2022/03/21 07:43:32;;;;;;;17.10;10.97;;;19.20;99.90;;;;;;5016635;28;20216;-81
2022/03/21 07:48:45;;;;;;;18.13;12.10;;;19.90;99.90;;;;;;5015116;28;20286;-83
2022/03/21 07:51:12;;;;;;;15.40;11.50;;;19.90;99.90;;;;;;5025026;28;20280;-82
2022/03/21 07:53:39;;;;;;;17.87;11.97;;;19.90;99.90;;;;;;5020921;28;20275;-82
2022/03/21 07:56:06;;;;;;;14.67;11.43;;;19.90;99.90;;;;;;5019688;28;20205;-83
2022/03/21 07:58:34;;;;;;;16.30;12.27;;;19.90;99.90;;;;;;5006141;28;20273;-82
2022/03/21 08:01:02;;;;;;;15.83;11.63;;;20.00;99.90;;;;;;5025313;28;20206;-81
2022/03/21 08:03:29;;;;;;;15.30;11.93;;;20.50;99.90;;;;;;5019151;28;20687;-81
2022/03/21 08:05:58;;;;;;;15.30;11.63;;;20.50;99.90;;;;;;5004345;28;20543;-83
2022/03/21 08:08:24;;;;;;;13.57;11.80;;;20.80;99.90;;;;;;5018531;28;20206;-81
2022/03/21 08:10:51;;;;;;;15.33;11.77;;;21.00;99.90;;;;;;5010297;28;20218;-80
2022/03/21 08:13:19;;;;;;;15.90;11.90;;;21.20;99.90;;;;;;5028664;28;20229;-81
2022/03/21 08:15:46;;;;;;;15.37;13.03;;;21.20;99.90;;;;;;5019520;28;20244;-81
2022/03/21 08:18:15;;;;;;;15.43;12.63;;;21.10;99.90;;;;;;5011466;28;20280;-82
2022/03/21 08:20:43;;;;;;;15.43;12.73;;;21.20;99.90;;;;;;5018932;28;20296;-81
2022/03/21 08:23:13;;;;;;;16.37;11.83;;;21.20;99.90;;;;;;5025923;28;20225;-81
2022/03/21 08:25:41;;;;;;;14.93;11.97;;;21.10;99.90;;;;;;5018273;28;20265;-84
2022/03/21 08:28:09;;;;;;;17.13;12.23;;;21.00;99.90;;;;;;5019355;28;20203;-81
2022/03/21 08:30:37;;;;;;;15.80;12.53;;;20.90;98.90;;;;;;5028355;28;20225;-83
2022/03/21 08:33:07;;;;;;;16.93;13.10;;;20.90;99.90;;;;;;5019356;28;20742;-82
2022/03/21 08:35:36;;;;;;;15.53;12.47;;;20.90;99.20;;;;;;5022917;28;20889;-82
2022/03/21 08:38:04;;;;;;;17.03;12.20;;;20.80;99.10;;;;;;5032617;28;20285;-82
2022/03/21 08:40:31;;;;;;;15.70;13.27;;;20.90;98.40;;;;;;5033082;28;20211;-81
2022/03/21 08:42:58;;;;;;;16.33;12.03;;;20.90;98.30;;;;;;5029906;28;20204;-82
2022/03/21 08:45:26;;;;;;;15.47;12.27;;;20.90;97.90;;;;;;5015853;28;20263;-83
2022/03/21 08:47:53;;;;;;;14.73;11.97;;;20.90;97.40;;;;;;5018237;28;20207;-82
2022/03/21 08:50:21;;;;;;;15.60;12.33;;;20.80;96.80;;;;;;5025805;28;20214;-81
2022/03/21 08:52:49;;;;;;;15.43;12.47;;;20.70;97.00;;;;;;5016567;28;20337;-83
2022/03/21 08:55:16;;;;;;;18.83;12.47;;;20.80;96.30;;;;;;5030181;28;20632;-81
2022/03/21 08:57:43;;;;;;;15.93;12.30;;;20.90;96.60;;;;;;5010670;28;20215;-83
2022/03/21 09:00:13;;;;;;;17.93;13.00;;;20.90;96.20;;;;;;5004531;28;20963;-83
2022/03/21 09:02:41;;;;;;;15.20;12.37;;;20.90;94.50;;;;;;5030133;28;20201;-82
2022/03/21 09:05:12;;;;;;;16.53;12.07;;;20.80;94.80;;;;;;5025080;28;20250;-80
2022/03/21 09:07:39;;;;;;;16.70;12.40;;;20.80;95.40;;;;;;5025460;28;20229;-82
2022/03/21 09:10:11;;;;;;;17.03;12.83;;;20.80;95.50;;;;;;5023862;28;20243;-83
2022/03/21 09:12:38;;;;;;;14.73;11.97;;;20.90;95.70;;;;;;5031717;28;20230;-83
2022/03/21 09:15:06;;;;;;;15.63;13.00;;;21.00;95.00;;;;;;5016021;28;20353;-83
2022/03/21 09:17:33;;;;;;;18.83;11.90;;;21.00;93.60;;;;;;5020231;28;20212;-83
2022/03/21 09:20:00;;;;;;;15.43;12.00;;;20.80;93.00;;;;;;5031707;28;20238;-82
2022/03/21 09:22:27;;;;;;;14.27;11.90;;;20.70;93.70;;;;;;5013428;28;20259;-83
2022/03/21 09:24:54;;;;;;;17.07;12.80;;;20.50;92.50;;;;;;5014226;28;20239;-82
2022/03/21 09:27:22;;;;;;;17.77;13.33;;;20.40;93.10;;;;;;5030616;28;20218;-83
2022/03/21 09:29:49;;;;;;;15.13;12.17;;;20.20;92.30;;;;;;5020611;28;20201;-81
2022/03/21 09:32:17;;;;;;;;;;;19.40;91.70;;;;;;5025106;28;22288;-83
2022/03/21 09:34:44;;;;;;;;;;;19.30;91.80;;;;;;5030839;28;19921;-82
2022/03/21 09:37:11;;;;;;;;;;;18.90;92.00;;;;;;5030449;28;19960;-83
2022/03/21 09:39:38;;;;;;;;;;;18.40;92.30;;;;;;5025074;28;19929;-82
2022/03/21 09:42:05;;;;;;;;;;;18.10;92.40;;;;;;5015092;28;19937;-82
2022/03/21 09:44:34;;;;;;;;;;;17.70;92.30;;;;;;5033419;28;19925;-81
2022/03/21 09:48:08;;;;;;;;;;;17.50;92.60;;;;;;5025909;28;20526;-81
2022/03/21 09:49:52;;;;;;;;;;;17.30;92.90;;;;;;5014215;28;19921;-81
2022/03/21 09:52:18;;;;;;;;;;;17.20;93.50;;;;;;5028402;28;19975;-81
2022/03/21 09:54:45;;;;;;;;;;;17.20;93.60;;;;;;5026421;28;19921;-81
2022/03/21 09:57:12;;;;;;;;;;;17.10;94.00;;;;;;5027272;28;19921;-82
2022/03/21 09:59:40;;;;;;;;;;;17.10;94.30;;;;;;5019105;28;19957;-81
2022/03/21 10:02:08;;;;;;;;;;;17.20;94.00;;;;;;5029144;28;19925;-80
2022/03/21 10:04:34;;;;;;;;;;;17.30;94.70;;;;;;5023091;28;19925;-81
2022/03/21 10:07:01;;;;;;;;;;;17.40;94.80;;;;;;5017157;28;19929;-80
2022/03/21 10:09:28;;;;;;;;;;;17.40;94.20;;;;;;5025771;28;19998;-82
2022/03/21 10:11:56;;;;;;;;;;;17.30;94.10;;;;;;5021121;28;19929;-82
2022/03/21 10:14:24;;;;;;;;;;;17.50;94.90;;;;;;5027836;28;19933;-79
2022/03/21 10:16:53;;;;;;;;;;;17.50;94.60;;;;;;5023531;28;20004;-82
2022/03/21 10:19:20;;;;;;;;;;;17.60;94.20;;;;;;5019718;28;19957;-81
2022/03/21 10:22:00;;;;;;;;;;;17.70;94.40;;;;;;5026554;28;20022;-81
2022/03/21 10:24:27;;;;;;;;;;;17.60;94.30;;;;;;5022636;28;19925;-82
2022/03/21 10:26:54;;;;;;;;;;;17.70;94.20;;;;;;5026521;28;20282;-82
2022/03/21 10:29:21;;;;;;;;;;;17.70;93.60;;;;;;5031613;28;19929;-81
2022/03/21 10:31:50;;;;;;;;;;;17.70;94.00;;;;;;5028123;28;19944;-82
2022/03/21 10:34:20;;;;;;;;;;;17.80;94.10;;;;;;5016386;28;19970;-81
2022/03/21 10:36:59;;;;;;;;;;;17.90;94.10;;;;;;5031918;28;19929;-81
2022/03/21 10:39:26;;;;;;;;;;;17.90;94.00;;;;;;5015644;28;19929;-80
2022/03/21 10:41:55;;;;;;;;;;;18.00;94.40;;;;;;5028024;28;19925;-81
2022/03/21 10:44:22;;;;;;;;;;;18.20;94.40;;;;;;5029902;28;20252;-82
2022/03/21 10:46:51;;;;;;;;;;;17.60;94.50;;;;;;5034455;28;20307;-85
2022/03/21 10:49:27;;;;;;;;;;;18.60;94.20;;;;;;5039744;28;20362;-81
2022/03/21 10:51:54;;;;;;;;;;;18.60;94.40;;;;;;5010956;28;19921;-81
2022/03/21 10:54:38;;;;;;;;;;;18.80;94.50;;;;;;5023450;28;19927;-84
2022/03/21 10:57:06;;;;;;;;;;;18.90;94.10;;;;;;5031976;28;19940;-81
2022/03/21 10:59:32;;;;;;;;;;;19.10;94.20;;;;;;5012370;28;20032;-82
2022/03/21 11:02:13;;;;;;;;;;;19.20;93.70;;;;;;5028571;28;19925;-82
2022/03/21 11:04:42;;;;;;;;;;;19.30;93.70;;;;;;5033432;28;20027;-82
2022/03/21 11:07:11;;;;;;;;;;;19.40;93.80;;;;;;5031173;28;19930;-86
2022/03/21 11:09:38;;;;;;;;;;;19.50;93.90;;;;;;5006096;28;19922;-83
2022/03/21 11:12:08;;;;;;;16.97;12.63;;;19.60;93.70;;;;;;5031105;28;20025;-82
2022/03/21 11:14:38;;;;;;;18.40;12.60;;;19.70;93.60;;;;;;5029250;28;20234;-82
2022/03/21 11:17:06;;;;;;;16.10;12.50;;;19.90;93.90;;;;;;5031888;28;20659;-81
2022/03/21 11:19:33;;;;;;;18.33;12.77;;;20.00;93.20;;;;;;5027164;28;20221;-82
2022/03/21 11:22:02;;;;;;;;;;;20.00;92.50;;;;;;5033628;28;20241;-81
2022/03/21 11:24:29;;;;;;;;;;;20.10;92.60;;;;;;5029711;28;19929;-82
2022/03/21 11:27:00;;;;;;;;;;;20.10;93.10;;;;;;5034887;28;19925;-82
2022/03/21 11:29:33;;;;;;;;;;;20.20;93.10;;;;;;5040832;28;19929;-83
2022/03/21 11:32:17;;;;;;;;;;;20.30;93.10;;;;;;5044963;28;19921;-84
2022/03/21 11:34:48;;;;;;;;;;;20.50;93.10;;;;;;5023911;28;19925;-81
2022/03/21 11:37:27;;;;;;;;;;;20.60;93.00;;;;;;5021752;28;19996;-81
2022/03/21 11:40:14;;;;;;;;;;;20.70;93.00;;;;;;5030421;28;20372;-81
2022/03/21 11:42:41;;;;;;;;;;;20.80;93.00;;;;;;5032062;28;20384;-82
2022/03/21 11:45:21;;;;;;;;;;;20.80;92.60;;;;;;5030396;28;19925;-81
2022/03/21 11:47:48;;;;;;;;;;;20.80;92.10;;;;;;5021484;28;19925;-82
2022/03/21 11:50:28;;;;;;;;;;;20.90;92.50;;;;;;5018668;28;19925;-82
2022/03/21 11:53:12;;;;;;;;;;;20.90;92.20;;;;;;5016284;28;20302;-82
2022/03/21 11:55:40;;;;;;;;;;;20.90;92.50;;;;;;5036525;28;19932;-82
2022/03/21 11:58:26;;;;;;;;;;;21.00;92.40;;;;;;5037300;28;19921;-82
2022/03/21 12:01:02;;;;;;;;;;;21.10;92.10;;;;;;5037690;28;19928;-82
2022/03/21 12:03:29;;;;;;;;;;;21.00;91.90;;;;;;5024427;28;20657;-81
2022/03/21 12:05:56;;;;;;;;;;;21.00;92.10;;;;;;5018637;28;19932;-81
2022/03/21 12:08:48;;;;;;;;;;;21.00;91.80;;;;;;5027703;28;19932;-82
2022/03/21 12:11:48;;;;;;;;;;;21.10;92.30;;;;;;5030143;28;20047;-82
2022/03/21 12:14:28;;;;;;;;;;;21.10;92.10;;;;;;5020029;28;19932;-82
2022/03/21 12:17:14;;;;;;;;;;;21.20;92.40;;;;;;5008139;28;19975;-83
2022/03/21 12:20:01;;;;;;;;;;;21.40;92.40;;;;;;5020975;28;19940;-82
2022/03/21 12:22:39;;;;;;;;;;;21.40;92.50;;;;;;5032986;28;19929;-82
2022/03/21 12:25:13;;;;;;;17.77;10.67;;;21.60;92.50;;;;;;5031299;28;20462;-82
2022/03/21 12:27:43;;;;;;;14.43;9.63;;;21.70;92.40;;;;;;5014869;28;20213;-81
2022/03/21 12:30:37;;;;;;;16.87;10.20;;;21.80;92.30;;;;;;5030644;28;20225;-83
2022/03/21 12:33:27;;;;;;;16.53;9.53;;;21.80;92.50;;;;;;5019574;28;20265;-83
2022/03/21 12:36:07;;;;;;;12.10;9.10;;;21.80;92.10;;;;;;5016435;28;20217;-83
2022/03/21 12:38:39;;;;;;;16.23;9.30;;;21.80;91.90;;;;;;5035087;28;20206;-83
2022/03/21 12:41:13;;;;;;;13.53;9.43;;;21.90;92.20;;;;;;5033965;28;20342;-82
2022/03/21 12:43:45;;;;;;;15.00;9.77;;;22.00;91.60;;;;;;5033958;28;20198;-82
2022/03/21 12:46:18;;;;;;;12.23;9.13;;;22.00;91.70;;;;;;5015771;28;20284;-82
2022/03/21 12:48:47;;;;;;;14.23;9.63;;;22.00;92.10;;;;;;5028628;28;20316;-82
2022/03/21 12:51:23;;;;;;;13.43;9.27;;;22.00;92.10;;;;;;5030823;28;20210;-83
2022/03/21 12:53:51;;;;;;;12.10;8.53;;;22.10;92.10;;;;;;5018032;28;20229;-82
2022/03/21 12:56:19;;;;;;;14.13;9.10;;;22.10;92.20;;;;;;5025299;28;20326;-82
2022/03/21 12:58:47;;;;;;;14.23;8.27;;;22.20;92.10;;;;;;5003547;28;20222;-82
2022/03/21 13:01:17;;;;;;;13.83;9.27;;;22.20;92.00;;;;;;5011623;28;20753;-82
2022/03/21 13:03:44;;;;;;;15.50;9.10;;;22.20;91.70;;;;;;5013581;28;20289;-82
2022/03/21 13:11:44;;;;;;;13.17;8.73;;;22.30;91.60;;;;;;5028330;28;20712;-82
2022/03/21 13:14:14;;;;;;;10.97;8.13;;;22.40;91.50;;;;;;5006381;28;20950;-82
2022/03/21 13:16:51;;;;;;;14.23;9.40;;;22.30;91.50;;;;;;5014252;28;20757;-83
2022/03/21 13:19:20;;;;;;;17.20;9.73;;;22.30;91.40;;;;;;5008477;28;20237;-83
2022/03/21 13:21:49;;;;;;;12.47;8.40;;;22.30;91.50;;;;;;5026080;28;20277;-82
2022/03/21 13:24:16;;;;;;;10.47;7.47;;;21.90;91.10;;;;;;5017352;28;20223;-82
2022/03/21 13:26:44;;;;;;;10.80;7.80;;;22.50;91.30;;;;;;5029040;28;20212;-83
2022/03/21 13:29:14;;;;;;;11.87;8.37;;;22.50;91.20;;;;;;5028354;28;20293;-83
2022/03/21 13:31:41;;;;;;;12.27;8.07;;;22.50;91.10;;;;;;5012979;28;20217;-83
2022/03/21 13:34:12;;;;;;;11.10;7.50;;;22.50;90.90;;;;;;5024651;28;20298;-83
2022/03/21 13:36:44;;;;;;;13.73;7.90;;;22.30;90.50;;;;;;5015085;28;20725;-83
2022/03/21 13:39:15;;;;;;;14.93;8.13;;;22.20;90.80;;;;;;5035031;28;20715;-84
2022/03/21 13:41:53;;;;;;;11.93;7.60;;;22.20;90.80;;;;;;5036299;28;20214;-84
2022/03/21 13:44:20;;;;;;;15.57;8.90;;;22.20;90.90;;;;;;5032484;28;20260;-84
2022/03/21 13:47:01;;;;;;;11.20;7.50;;;22.20;91.20;;;;;;5018396;28;20748;-84
2022/03/21 13:49:51;;;;;;;10.07;6.80;;;22.20;91.10;;;;;;5013680;28;20623;-84
2022/03/21 13:52:41;;;;;;;9.17;5.40;;;22.30;91.00;;;;;;5010341;28;20213;-84
2022/03/21 13:55:09;;;;;;;11.57;5.93;;;22.20;90.70;;;;;;5014289;28;20226;-84
2022/03/21 13:57:48;;;;;;;11.87;7.27;;;22.20;90.80;;;;;;5019619;28;20224;-84
2022/03/21 14:00:17;;;;;;;13.63;7.70;;;22.10;90.70;;;;;;5037312;28;20201;-83
2022/03/21 14:02:45;;;;;;;12.37;7.00;;;22.10;90.90;;;;;;5014710;28;20204;-83
2022/03/21 14:05:19;;;;;;;10.10;6.33;;;22.10;90.90;;;;;;5012627;28;20227;-83
2022/03/21 14:07:48;;;;;;;9.73;5.90;;;22.00;90.70;;;;;;5018700;28;20275;-82
2022/03/21 14:10:17;;;;;;;10.43;6.17;;;22.60;90.70;;;;;;5025067;28;20569;-82
2022/03/21 14:12:49;;;;;;;9.97;6.77;;;22.00;90.70;;;;;;5029199;28;20823;-82
2022/03/21 14:15:19;;;;;;;12.23;7.17;;;22.00;90.70;;;;;;5024262;28;20230;-83
2022/03/21 14:17:46;;;;;;;10.03;7.40;;;22.00;90.60;;;;;;5021222;28;20229;-83
2022/03/21 14:20:17;;;;;;;9.43;6.40;;;22.00;90.70;;;;;;5017548;28;20222;-83
2022/03/21 14:22:47;;;;;;;11.07;6.80;;;21.90;91.00;;;;;;5025607;28;20211;-83
2022/03/21 14:27:59;;;;;;;10.00;6.20;;;21.90;90.60;;;;;;5036060;28;20303;-83
2022/03/21 14:30:26;;;;;;;9.87;6.43;;;21.70;90.30;;;;;;5035616;28;20197;-82